createdAt,value
2022-11-13T00:02:15.122Z,101632.69
2022-11-13T00:04:44.848Z,101596.13
2022-11-13T00:07:14.585Z,101620.63
2022-11-13T00:09:46.485Z,101627.53
2022-11-13T00:12:20.907Z,101623.69
2022-11-13T00:14:56.134Z,101622.94
2022-11-13T00:17:28.885Z,101616.41
2022-11-13T00:20:01.612Z,101616.56
2022-11-13T00:22:38.879Z,101550.91
2022-11-13T00:25:14.731Z,101611.81
2022-11-13T00:27:44.448Z,101595.53
2022-11-13T00:30:19.302Z,101571.66
2022-11-13T00:32:51.132Z,101572.97
2022-11-13T00:35:20.122Z,101576.47
2022-11-13T00:38:01.112Z,101621.50
2022-11-13T00:40:33.580Z,101615.00
2022-11-13T00:43:02.901Z,101570.53
2022-11-13T00:45:31.497Z,101612.53
2022-11-13T00:48:02.504Z,101593.63
2022-11-13T00:50:36.642Z,101584.94
2022-11-13T00:53:18.331Z,101605.91
2022-11-13T00:55:52.390Z,101608.16
2022-11-13T00:58:20.714Z,101560.63
2022-11-13T01:01:28.938Z,101604.84
2022-11-13T01:04:01.409Z,101600.38
2022-11-13T01:06:41.563Z,101608.47
2022-11-13T01:09:13.152Z,101597.63
2022-11-13T01:11:43.363Z,101577.84
2022-11-13T01:14:12.633Z,101535.53
2022-11-13T01:16:41.585Z,101595.00
2022-11-13T01:19:13.040Z,101527.09
2022-11-13T01:21:42.529Z,101542.25
2022-11-13T01:24:14.872Z,101519.88
2022-11-13T01:26:51.406Z,101510.25
2022-11-13T01:29:20.718Z,101544.16
2022-11-13T01:31:49.563Z,101561.31
2022-11-13T01:34:23.821Z,101536.63
2022-11-13T01:36:55.890Z,101515.09
2022-11-13T01:39:25.182Z,101499.84
2022-11-13T01:41:54.038Z,101572.38
2022-11-13T01:44:47.577Z,101538.09
2022-11-13T01:47:17.129Z,101547.22
2022-11-13T01:49:53.170Z,101559.91
2022-11-13T01:55:21.462Z,101551.47
2022-11-13T01:57:50.891Z,101558.41
2022-11-13T02:00:20.079Z,101522.09
2022-11-13T02:02:48.980Z,101531.56
2022-11-13T02:05:19.584Z,101524.00
2022-11-13T02:07:48.796Z,101503.88
2022-11-13T02:10:18.107Z,101529.53
2022-11-13T02:12:48.939Z,101555.78
2022-11-13T02:15:21.654Z,101558.84
2022-11-13T02:17:54.975Z,101489.44
2022-11-13T02:20:34.124Z,101512.16
2022-11-13T02:23:13.560Z,101544.75
2022-11-13T02:25:46.360Z,101525.47
2022-11-13T02:28:15.870Z,101548.63
2022-11-13T02:30:45.373Z,101548.78
2022-11-13T02:33:28.596Z,101519.88
2022-11-13T02:36:02.172Z,101525.53
2022-11-13T02:38:34.810Z,101501.69
2022-11-13T02:41:06.806Z,101517.31
2022-11-13T02:43:36.131Z,101510.97
2022-11-13T02:46:05.122Z,101504.84
2022-11-13T02:48:35.269Z,101545.22
2022-11-13T02:51:07.980Z,101544.38
2022-11-13T02:53:43.343Z,101487.41
2022-11-13T02:56:52.671Z,101469.78
2022-11-13T02:59:25.630Z,101448.53
2022-11-13T03:01:54.931Z,101479.78
2022-11-13T03:04:24.569Z,101502.06
2022-11-13T03:06:56.995Z,101487.22
2022-11-13T03:09:27.147Z,101441.84
2022-11-13T03:11:57.110Z,101484.81
2022-11-13T03:14:30.647Z,101503.72
2022-11-13T03:17:11.760Z,101473.50
2022-11-13T03:19:45.652Z,101475.06
2022-11-13T03:22:22.255Z,101441.78
2022-11-13T03:25:02.151Z,101498.63
2022-11-13T03:27:34.314Z,101524.22
2022-11-13T03:30:08.734Z,101517.91
2022-11-13T03:32:38.061Z,101471.97
2022-11-13T03:35:10.985Z,101507.63
2022-11-13T03:37:40.799Z,101435.44
2022-11-13T03:40:11.204Z,101470.84
2022-11-13T03:42:40.459Z,101467.72
2022-11-13T03:45:11.969Z,101499.88
2022-11-13T03:47:41.535Z,101462.63
2022-11-13T03:50:11.589Z,101434.03
2022-11-13T03:52:43.989Z,101508.38
2022-11-13T03:55:16.189Z,101445.63
2022-11-13T03:57:45.317Z,101498.94
2022-11-13T04:00:20.446Z,101437.44
2022-11-13T04:02:55.001Z,101499.84
2022-11-13T04:05:24.543Z,101457.09
2022-11-13T04:07:56.986Z,101456.97
2022-11-13T04:10:28.798Z,101489.63
2022-11-13T04:13:01.020Z,101463.69
2022-11-13T04:15:31.326Z,101414.66
2022-11-13T04:18:00.563Z,101467.31
2022-11-13T04:20:30.296Z,101473.78
2022-11-13T04:22:59.786Z,101430.91
2022-11-13T04:25:28.857Z,101422.72
2022-11-13T04:27:57.704Z,101458.13
2022-11-13T04:30:26.740Z,101409.78
2022-11-13T04:32:57.150Z,101461.63
2022-11-13T04:35:28.170Z,101456.13
2022-11-13T04:37:57.088Z,101464.63
2022-11-13T04:40:26.126Z,101425.69
2022-11-13T04:42:53.818Z,101422.28
2022-11-13T04:45:27.610Z,101456.72
2022-11-13T04:47:57.780Z,101449.50
2022-11-13T04:50:26.853Z,101447.25
2022-11-13T04:52:55.778Z,101380.44
2022-11-13T04:55:24.292Z,101419.91
2022-11-13T04:57:55.681Z,101442.88
2022-11-13T05:00:24.627Z,101400.88
2022-11-13T05:02:53.380Z,101396.06
2022-11-13T05:05:24.127Z,101440.88
2022-11-13T05:07:54.658Z,101436.38
2022-11-13T05:10:27.122Z,101437.66
2022-11-13T05:13:01.432Z,101361.66
2022-11-13T05:15:32.607Z,101429.63
2022-11-13T05:18:03.771Z,101368.13
2022-11-13T05:20:34.034Z,101400.81
2022-11-13T05:23:05.631Z,101408.47
2022-11-13T05:25:37.549Z,101375.22
2022-11-13T05:28:09.263Z,101344.03
2022-11-13T05:30:38.625Z,101415.16
2022-11-13T05:33:10.421Z,101377.63
2022-11-13T05:35:40.898Z,101375.91
2022-11-13T05:38:10.399Z,101317.44
2022-11-13T05:40:40.428Z,101407.25
2022-11-13T05:43:09.695Z,101377.31
2022-11-13T05:45:38.935Z,101334.03
2022-11-13T05:48:08.072Z,101401.44
2022-11-13T05:50:37.276Z,101403.25
2022-11-13T05:53:07.195Z,101361.69
2022-11-13T05:55:39.949Z,101402.59
2022-11-13T05:58:12.231Z,101341.09
2022-11-13T06:00:44.258Z,101379.75
2022-11-13T06:03:17.642Z,101330.97
2022-11-13T06:05:55.967Z,101396.66
2022-11-13T06:08:37.270Z,101397.09
2022-11-13T06:11:12.549Z,101326.03
2022-11-13T06:16:42.171Z,101382.84
2022-11-13T06:19:20.426Z,101373.25
2022-11-13T07:25:02.450Z,101355.19
2022-11-13T07:27:34.993Z,101318.44
2022-11-13T07:30:07.261Z,101304.63
2022-11-13T07:32:50.292Z,101274.34
2022-11-13T07:35:22.375Z,101286.00
2022-11-13T07:41:20.344Z,101347.47
2022-11-13T07:43:52.198Z,101289.41
2022-11-13T07:46:24.268Z,101305.00
2022-11-13T07:48:59.669Z,101355.81
2022-11-13T07:51:29.265Z,101346.63
2022-11-13T07:54:00.303Z,101296.63
2022-11-13T07:56:33.366Z,101362.63
2022-11-13T07:59:02.713Z,101348.13
2022-11-13T08:01:34.606Z,101304.72
2022-11-13T08:04:11.737Z,101261.91
2022-11-13T08:06:44.280Z,101318.25
2022-11-13T08:09:14.953Z,101293.84
2022-11-13T08:12:00.944Z,101263.91
2022-11-13T08:14:43.926Z,101292.38
2022-11-13T08:17:23.837Z,101335.50
2022-11-13T08:19:58.804Z,101293.81
2022-11-13T08:22:33.704Z,101321.09
2022-11-13T08:25:05.184Z,101271.09
2022-11-13T08:27:36.538Z,101312.88
2022-11-13T08:30:10.519Z,101300.91
2022-11-13T08:32:43.348Z,101309.31
2022-11-13T08:35:17.477Z,101297.41
2022-11-13T08:37:49.122Z,101293.00
2022-11-13T08:40:20.858Z,101267.19
2022-11-13T08:42:51.383Z,101295.19
2022-11-13T08:45:20.910Z,101292.34
2022-11-13T08:47:51.832Z,101295.72
2022-11-13T08:50:29.542Z,101236.19
2022-11-13T08:53:06.529Z,101258.09
2022-11-13T08:55:37.119Z,101252.53
2022-11-13T08:58:08.427Z,101245.63
2022-11-13T09:00:41.115Z,101274.63
2022-11-13T09:03:13.447Z,101238.03
2022-11-13T09:05:44.401Z,101277.47
2022-11-13T09:08:13.941Z,101257.44
2022-11-13T09:10:46.370Z,101275.81
2022-11-13T09:13:20.488Z,101233.50
2022-11-13T09:15:52.575Z,101244.81
2022-11-13T09:18:22.085Z,101251.38
2022-11-13T09:20:55.479Z,101243.28
2022-11-13T09:23:25.196Z,101187.22
2022-11-13T09:25:55.582Z,101240.22
2022-11-13T09:28:29.554Z,101194.91
2022-11-13T09:30:59.422Z,101244.25
2022-11-13T09:33:29.227Z,101249.25
2022-11-13T09:36:06.644Z,101200.03
2022-11-13T09:38:36.735Z,101241.31
2022-11-13T09:41:15.253Z,101199.88
2022-11-13T09:43:58.256Z,101207.75
2022-11-13T09:46:40.793Z,101238.59
2022-11-13T09:49:18.527Z,101221.13
2022-11-13T09:52:04.006Z,101167.59
2022-11-13T09:54:41.870Z,101214.41
2022-11-13T09:57:27.052Z,101220.78
2022-11-13T10:00:02.629Z,101192.63
2022-11-13T10:02:48.374Z,101192.56
2022-11-13T10:05:33.710Z,101169.97
2022-11-13T10:08:09.475Z,101195.41
2022-11-13T10:11:02.612Z,101166.66
2022-11-13T10:13:39.613Z,101191.00
2022-11-13T10:16:22.913Z,101174.63
2022-11-13T10:18:52.730Z,101166.53
2022-11-13T10:21:30.597Z,101173.06
2022-11-13T10:24:02.267Z,101164.59
2022-11-13T10:26:30.529Z,101179.88
2022-11-13T10:29:03.510Z,101176.50
2022-11-13T10:31:42.630Z,101165.59
2022-11-13T10:34:11.909Z,101171.13
2022-11-13T10:36:50.699Z,101161.94
2022-11-13T10:39:18.479Z,101168.63
2022-11-13T10:41:48.526Z,101145.91
2022-11-13T10:44:27.838Z,101132.41
2022-11-13T10:47:15.712Z,101126.63
2022-11-13T10:49:46.432Z,101122.28
2022-11-13T10:52:19.959Z,101112.25
2022-11-13T10:54:48.889Z,101095.66
2022-11-13T10:57:30.352Z,101096.22
2022-11-13T10:59:58.302Z,101101.97
2022-11-13T11:02:29.125Z,101087.88
2022-11-13T11:05:06.474Z,101077.00
2022-11-13T11:07:41.570Z,101071.56
2022-11-13T11:10:22.946Z,101066.25
2022-11-13T11:12:55.428Z,101053.72
2022-11-13T11:15:26.483Z,101056.44
2022-11-13T11:18:00.473Z,101047.69
2022-11-13T11:20:43.754Z,101018.47
2022-11-13T11:23:23.627Z,101021.91
2022-11-13T11:25:57.925Z,101007.47
2022-11-13T11:28:33.906Z,100991.34
2022-11-13T11:31:11.185Z,100981.47
2022-11-13T11:33:51.473Z,100981.44
2022-11-13T11:36:32.585Z,100980.97
2022-11-13T11:39:07.060Z,100977.88
2022-11-13T11:41:39.907Z,100969.00
2022-11-13T11:44:18.725Z,100970.41
2022-11-13T11:46:47.004Z,100971.03
2022-11-13T11:49:16.911Z,100967.00
2022-11-13T11:51:57.641Z,100965.09
2022-11-13T11:54:39.068Z,100961.13
2022-11-13T11:57:20.759Z,100956.78
2022-11-13T12:00:03.281Z,100958.78
2022-11-13T12:03:06.082Z,100960.72
2022-11-13T12:05:46.145Z,100946.63
2022-11-13T12:08:23.350Z,100937.06
2022-11-13T12:10:58.439Z,100937.84
2022-11-13T12:13:32.416Z,100933.56
2022-11-13T12:16:10.215Z,100932.31
2022-11-13T12:18:49.324Z,100894.09
2022-11-13T12:21:29.508Z,100923.31
2022-11-13T12:24:16.724Z,100916.81
2022-11-13T12:26:51.405Z,100922.81
2022-11-13T12:29:35.805Z,100926.78
2022-11-13T12:32:13.356Z,100925.34
2022-11-13T12:34:48.570Z,100923.31
2022-11-13T12:37:23.505Z,100919.13
2022-11-13T12:39:57.866Z,100918.97
2022-11-13T12:42:35.899Z,100917.69
2022-11-13T12:45:15.172Z,100919.88
2022-11-13T12:47:45.001Z,100915.84
2022-11-13T12:50:31.486Z,100913.84
2022-11-13T12:53:03.997Z,100921.72
2022-11-13T12:55:34.530Z,100918.69
2022-11-13T12:58:11.391Z,100915.09
2022-11-13T13:00:42.329Z,100890.13
2022-11-13T13:03:26.804Z,100886.25
2022-11-13T13:06:10.328Z,100884.00
2022-11-13T13:08:55.904Z,100893.69
2022-11-13T13:11:33.060Z,100886.56
2022-11-13T13:14:19.166Z,100876.66
2022-11-13T13:16:47.351Z,100873.47
2022-11-13T13:19:28.431Z,100878.47
2022-11-13T13:21:56.512Z,100875.25
2022-11-13T13:24:32.430Z,100865.28
2022-11-13T13:27:00.746Z,100850.97
2022-11-13T13:29:30.315Z,100853.38
2022-11-13T13:32:11.599Z,100838.16
2022-11-13T13:34:53.782Z,100830.59
2022-11-13T13:37:31.092Z,100822.28
2022-11-13T13:40:15.368Z,100825.88
2022-11-13T13:43:07.798Z,100821.22
2022-11-13T13:45:47.578Z,100812.91
2022-11-13T13:48:20.130Z,100815.44
2022-11-13T13:50:50.408Z,100819.22
2022-11-13T13:53:23.354Z,100812.38
2022-11-13T13:55:55.873Z,100815.72
2022-11-13T13:58:28.080Z,100807.66
2022-11-13T14:01:17.863Z,100802.09
2022-11-13T14:03:46.826Z,100803.88
2022-11-13T14:06:22.270Z,100807.69
2022-11-13T14:09:09.531Z,100801.72
2022-11-13T14:11:38.683Z,100789.16
2022-11-13T14:14:39.901Z,100786.28
2022-11-13T14:17:09.698Z,100746.69
2022-11-13T14:19:38.133Z,100753.72
2022-11-13T14:22:09.487Z,100738.56
2022-11-13T14:24:47.228Z,100737.34
2022-11-13T14:27:20.852Z,100750.22
2022-11-13T14:29:50.988Z,100753.72
2022-11-13T14:32:22.782Z,100747.06
2022-11-13T14:34:53.012Z,100723.97
2022-11-13T14:37:28.470Z,100711.47
2022-11-13T14:39:59.340Z,100704.13
2022-11-13T14:42:37.607Z,100713.63
2022-11-13T14:45:18.525Z,100703.19
2022-11-13T14:47:57.666Z,100657.16
2022-11-13T14:50:28.226Z,100697.81
2022-11-13T14:52:57.672Z,100677.63
2022-11-13T14:55:46.312Z,100705.03
2022-11-13T14:58:28.070Z,100724.22
2022-11-13T15:00:57.746Z,100718.03
2022-11-13T15:03:30.941Z,100699.47
2022-11-13T15:05:59.441Z,100674.19
2022-11-13T15:08:39.741Z,100713.34
2022-11-13T15:11:17.288Z,100713.78
2022-11-13T15:13:51.863Z,100689.69
2022-11-13T15:16:27.504Z,100698.88
2022-11-13T15:19:08.960Z,100710.59
2022-11-13T15:21:37.515Z,100704.31
2022-11-13T15:24:06.212Z,100687.75
2022-11-13T15:26:34.133Z,100725.00
2022-11-13T15:29:03.723Z,100714.03
2022-11-13T15:31:34.874Z,100721.53
2022-11-13T15:34:02.896Z,100716.34
2022-11-13T15:36:31.525Z,100727.66
2022-11-13T15:39:03.456Z,100701.81
2022-11-13T15:41:35.070Z,100698.31
2022-11-13T15:44:12.951Z,100729.94
2022-11-13T16:22:09.376Z,100708.56
2022-11-13T16:29:14.374Z,100694.13
2022-11-13T16:31:37.272Z,100680.50
2022-11-13T16:34:05.146Z,100686.75
2022-11-13T16:36:32.942Z,100682.53
2022-11-13T16:39:01.015Z,100716.94
2022-11-13T16:41:32.422Z,100697.09
2022-11-13T16:44:00.308Z,100694.78
2022-11-13T16:46:30.641Z,100681.63
2022-11-13T16:48:59.092Z,100680.97
2022-11-13T16:51:27.357Z,100690.53
2022-11-13T16:53:55.337Z,100689.88
2022-11-13T16:56:28.989Z,100667.06
2022-11-13T16:58:59.238Z,100666.22
2022-11-13T17:01:27.427Z,100669.97
2022-11-13T17:03:55.508Z,100666.44
2022-11-13T17:06:26.819Z,100682.34
2022-11-13T17:08:56.843Z,100659.34
2022-11-13T17:11:26.073Z,100659.34
2022-11-13T17:13:57.079Z,100643.63
2022-11-13T17:16:28.042Z,100678.28
2022-11-13T17:18:56.298Z,100645.25
2022-11-13T17:21:26.210Z,100669.53
2022-11-13T17:23:56.105Z,100624.44
2022-11-13T17:26:24.373Z,100674.59
2022-11-13T17:28:54.899Z,100649.09
2022-11-13T17:31:22.978Z,100662.91
2022-11-13T17:33:55.268Z,100661.66
2022-11-13T17:36:23.783Z,100670.66
2022-11-13T17:38:51.703Z,100680.03
2022-11-13T17:41:20.185Z,100679.41
2022-11-13T17:43:48.045Z,100637.84
2022-11-13T17:46:17.790Z,100665.03
2022-11-13T17:48:45.920Z,100652.69
2022-11-13T17:51:16.485Z,100647.50
2022-11-13T17:53:44.760Z,100667.47
2022-11-13T17:56:13.794Z,100666.59
2022-11-13T17:58:43.862Z,100638.38
2022-11-13T18:01:14.241Z,100646.09
2022-11-13T18:03:42.688Z,100667.94
2022-11-13T18:06:13.617Z,100676.50
2022-11-13T18:08:45.081Z,100669.13
2022-11-13T18:11:16.019Z,100652.91
2022-11-13T18:13:44.836Z,100639.94
2022-11-13T18:16:15.041Z,100644.09
2022-11-13T18:18:43.352Z,100670.88
2022-11-13T18:21:22.381Z,100616.59
2022-11-13T18:23:58.149Z,100643.47
2022-11-13T18:26:26.538Z,100661.63
2022-11-13T18:28:55.048Z,100648.16
2022-11-13T18:31:23.578Z,100621.34
2022-11-13T18:33:51.979Z,100671.22
2022-11-13T18:36:20.776Z,100661.91
2022-11-13T18:38:49.022Z,100630.19
2022-11-13T18:41:20.184Z,100639.00
2022-11-13T18:43:50.067Z,100647.75
2022-11-13T18:46:20.732Z,100653.53
2022-11-13T18:48:49.577Z,100647.28
2022-11-13T18:51:20.148Z,100645.25
2022-11-13T18:53:49.413Z,100649.59
2022-11-13T18:56:20.635Z,100648.09
2022-11-13T18:58:50.153Z,100636.97
2022-11-13T19:01:22.673Z,100621.94
2022-11-13T19:04:08.676Z,100633.91
2022-11-13T19:06:40.117Z,100597.59
2022-11-13T19:09:12.508Z,100601.38
2022-11-13T19:11:42.518Z,100607.72
2022-11-13T19:14:16.494Z,100611.00
2022-11-13T19:16:44.443Z,100605.84
2022-11-13T19:19:17.198Z,100596.81
2022-11-13T19:21:45.482Z,100609.75
2022-11-13T19:24:15.070Z,100608.84
2022-11-13T19:26:45.137Z,100572.66
2022-11-13T19:29:13.851Z,100578.13
2022-11-13T19:31:41.922Z,100600.66
2022-11-13T19:34:11.292Z,100588.19
2022-11-13T19:36:41.222Z,100587.53
2022-11-13T19:39:09.686Z,100596.00
2022-11-13T19:41:37.631Z,100559.28
2022-11-13T19:44:07.308Z,100595.78
2022-11-13T19:46:35.458Z,100582.94
2022-11-13T19:49:04.310Z,100601.53
2022-11-13T19:51:33.100Z,100591.88
2022-11-13T19:54:02.025Z,100577.53
2022-11-13T19:56:30.605Z,100555.88
2022-11-13T19:58:59.236Z,100604.22
2022-11-13T20:01:32.161Z,100603.56
2022-11-13T20:04:02.896Z,100588.78
2022-11-13T20:06:33.245Z,100536.78
2022-11-13T20:09:03.639Z,100559.84
2022-11-13T20:11:32.544Z,100558.00
2022-11-13T20:14:02.516Z,100592.59
2022-11-13T20:16:32.313Z,100587.56
2022-11-13T20:19:00.552Z,100558.53
2022-11-13T20:21:31.494Z,100587.28
2022-11-13T20:24:00.945Z,100572.56
2022-11-13T20:26:32.162Z,100573.25
2022-11-13T20:29:00.599Z,100587.38
2022-11-13T20:31:33.403Z,100516.91
2022-11-13T20:34:02.332Z,100584.97
2022-11-13T20:36:30.612Z,100588.78
2022-11-13T20:38:59.114Z,100583.34
2022-11-13T20:41:27.527Z,100575.75
2022-11-13T20:44:01.700Z,100589.84
2022-11-13T20:46:30.467Z,100577.59
2022-11-13T20:49:01.114Z,100596.91
2022-11-13T20:51:30.265Z,100578.69
2022-11-13T20:53:58.392Z,100584.25
2022-11-13T20:56:27.924Z,100576.84
2022-11-13T20:58:56.079Z,100580.38
2022-11-13T21:01:26.370Z,100562.47
2022-11-13T21:03:56.037Z,100590.03
2022-11-13T21:06:26.227Z,100568.38
2022-11-13T21:08:56.203Z,100594.84
2022-11-13T21:11:26.468Z,100582.47
2022-11-13T21:13:55.525Z,100595.34
2022-11-13T21:16:24.392Z,100596.88
2022-11-13T21:18:52.578Z,100592.16
2022-11-13T21:21:23.180Z,100577.09
2022-11-13T21:24:00.925Z,100549.66
2022-11-13T21:26:29.513Z,100556.44
2022-11-13T21:28:57.843Z,100565.16
2022-11-13T21:31:25.727Z,100568.09
2022-11-13T21:33:54.061Z,100573.06
2022-11-13T21:36:23.908Z,100563.38
2022-11-13T21:38:53.051Z,100569.22
2022-11-13T21:41:24.584Z,100560.84
2022-11-13T21:43:56.417Z,100575.47
2022-11-13T21:46:25.272Z,100564.22
2022-11-13T21:48:58.040Z,100576.31
2022-11-13T21:51:25.998Z,100539.31
2022-11-13T21:53:53.847Z,100538.84
2022-11-13T21:56:23.595Z,100562.09
2022-11-13T21:58:51.470Z,100571.03
2022-11-13T22:01:19.821Z,100556.06
2022-11-13T22:03:47.645Z,100560.47
2022-11-13T22:06:18.061Z,100539.81
2022-11-13T22:08:48.033Z,100554.53
2022-11-13T22:11:15.857Z,100552.53
2022-11-13T22:13:45.095Z,100549.84
2022-11-13T22:16:13.682Z,100534.13
2022-11-13T22:18:41.740Z,100552.53
2022-11-13T22:21:11.685Z,100521.91
2022-11-13T22:23:40.163Z,100546.03
2022-11-13T22:26:09.860Z,100515.44
2022-11-13T22:28:39.476Z,100539.25
2022-11-13T22:31:12.346Z,100530.00
2022-11-13T22:33:43.659Z,100532.44
2022-11-13T22:36:16.072Z,100530.22
2022-11-13T22:38:44.419Z,100544.72
2022-11-13T22:41:22.615Z,100536.88
2022-11-13T22:43:53.049Z,100499.28
2022-11-13T22:46:24.127Z,100528.31
2022-11-13T22:48:53.631Z,100523.09
2022-11-13T22:51:23.206Z,100511.03
2022-11-13T22:53:52.472Z,100518.63
2022-11-13T22:56:21.527Z,100521.66
2022-11-13T22:58:50.034Z,100527.88
2022-11-13T23:01:20.153Z,100522.50
2022-11-13T23:03:50.775Z,100513.97
2022-11-13T23:06:20.552Z,100492.56
2022-11-13T23:08:50.497Z,100485.31
2022-11-13T23:11:20.832Z,100513.47
2022-11-13T23:13:56.659Z,100464.56
2022-11-13T23:16:26.481Z,100502.53
2022-11-13T23:18:58.958Z,100494.63
2022-11-13T23:21:28.179Z,100487.41
2022-11-13T23:23:58.560Z,100468.81
2022-11-13T23:26:27.986Z,100455.13
2022-11-13T23:28:56.687Z,100489.47
2022-11-13T23:31:24.967Z,100494.19
2022-11-13T23:33:52.876Z,100486.91
2022-11-13T23:36:22.247Z,100483.91
2022-11-13T23:38:49.998Z,100468.16
2022-11-13T23:41:17.931Z,100479.03
2022-11-13T23:46:33.509Z,100493.94
2022-11-13T23:49:01.326Z,100473.63
2022-11-13T23:51:31.766Z,100456.53
2022-11-13T23:53:59.735Z,100492.19
2022-11-13T23:56:27.594Z,100477.59
2022-11-13T23:58:55.405Z,100461.25
